Terminal Aerodrome Forecast
Issued by NWS Omaha/Valley, NE

Home | Current Version | Previous Version | Text Only | Print | Product List | Glossary On
Versions: 1 2 3 4 5 6 7 8 9 10 11 12 13 14 15 16 17 18
000
FTUS43 KOAX 252320
TAFOFK
TAF
KOFK 252320Z 2600/2624 VRB05KT P6SM SCT250
     FM260300 19006KT P6SM BKN250
     FM261000 22008KT P6SM BKN200
     FM261400 32015G24KT P6SM BKN120
     FM261600 34020G29KT P6SM SCT040 BKN100=

USA.gov is the U.S. government's official web portal to all federal, state and local government web resources and services.